sensor_id;sensor_type;location;lat;lon;timestamp;pressure;altitude;pressure_sealevel;temperature;humidity
82870;BME280;72645;47.136;15.420;2024-03-23T00:54:43;96480.13;;;9.81;57.68
82870;BME280;72645;47.136;15.420;2024-03-23T00:57:14;96475.81;;;9.75;57.45
82870;BME280;72645;47.136;15.420;2024-03-23T00:59:44;96474.77;;;9.66;57.52
82870;BME280;72645;47.136;15.420;2024-03-23T01:02:15;96472.04;;;9.61;57.56
82870;BME280;72645;47.136;15.420;2024-03-23T01:04:45;96473.66;;;9.57;57.40
82870;BME280;72645;47.136;15.420;2024-03-23T01:07:16;96469.33;;;9.53;57.58
82870;BME280;72645;47.136;15.420;2024-03-23T01:09:45;96467.23;;;9.44;57.95
82870;BME280;72645;47.136;15.420;2024-03-23T01:12:15;96464.31;;;9.36;58.36
82870;BME280;72645;47.136;15.420;2024-03-23T01:14:45;96465.46;;;9.27;58.55
82870;BME280;72645;47.136;15.420;2024-03-23T01:17:14;96458.30;;;9.17;58.92
82870;BME280;72645;47.136;15.420;2024-03-23T01:19:45;96457.05;;;9.05;58.89
82870;BME280;72645;47.136;15.420;2024-03-23T01:22:13;96451.63;;;8.99;59.16
82870;BME280;72645;47.136;15.420;2024-03-23T01:24:44;96453.13;;;8.98;59.18
82870;BME280;72645;47.136;15.420;2024-03-23T01:27:15;96446.75;;;9.01;59.07
82870;BME280;72645;47.136;15.420;2024-03-23T01:29:45;96441.17;;;9.01;58.91
82870;BME280;72645;47.136;15.420;2024-03-23T01:32:15;96441.61;;;9.04;58.40
82870;BME280;72645;47.136;15.420;2024-03-23T01:34:47;96437.20;;;9.04;58.63
82870;BME280;72645;47.136;15.420;2024-03-23T01:37:18;96435.45;;;9.01;58.61
82870;BME280;72645;47.136;15.420;2024-03-23T01:39:48;96429.98;;;8.97;58.29
82870;BME280;72645;47.136;15.420;2024-03-23T01:42:17;96425.45;;;8.92;58.46
82870;BME280;72645;47.136;15.420;2024-03-23T01:44:46;96429.11;;;8.86;58.49
82870;BME280;72645;47.136;15.420;2024-03-23T01:47:17;96424.81;;;8.80;58.75
82870;BME280;72645;47.136;15.420;2024-03-23T01:49:47;96422.55;;;8.72;58.95
82870;BME280;72645;47.136;15.420;2024-03-23T01:52:18;96419.60;;;8.67;58.89
82870;BME280;72645;47.136;15.420;2024-03-23T01:54:49;96417.42;;;8.68;58.88
82870;BME280;72645;47.136;15.420;2024-03-23T01:57:20;96414.89;;;8.66;58.55
82870;BME280;72645;47.136;15.420;2024-03-23T01:59:50;96412.44;;;8.58;58.68
82870;BME280;72645;47.136;15.420;2024-03-23T02:02:22;96409.98;;;8.49;59.07
82870;BME280;72645;47.136;15.420;2024-03-23T02:04:53;96404.94;;;8.41;59.00
82870;BME280;72645;47.136;15.420;2024-03-23T02:07:22;96406.49;;;8.35;59.30
82870;BME280;72645;47.136;15.420;2024-03-23T02:09:53;96404.27;;;8.27;59.70
82870;BME280;72645;47.136;15.420;2024-03-23T02:12:23;96394.96;;;8.18;60.16
82870;BME280;72645;47.136;15.420;2024-03-23T02:14:54;96389.80;;;8.09;60.20
82870;BME280;72645;47.136;15.420;2024-03-23T02:17:23;96385.90;;;8.02;60.47
82870;BME280;72645;47.136;15.420;2024-03-23T02:19:54;96388.00;;;7.92;60.55
82870;BME280;72645;47.136;15.420;2024-03-23T02:22:23;96383.73;;;7.88;60.51
82870;BME280;72645;47.136;15.420;2024-03-23T02:24:53;96379.14;;;7.78;60.81
82870;BME280;72645;47.136;15.420;2024-03-23T02:27:25;96379.03;;;7.72;61.13
82870;BME280;72645;47.136;15.420;2024-03-23T02:29:56;96376.88;;;7.68;61.02
82870;BME280;72645;47.136;15.420;2024-03-23T02:32:24;96363.14;;;7.68;60.98
82870;BME280;72645;47.136;15.420;2024-03-23T02:34:55;96361.31;;;7.71;61.13
82870;BME280;72645;47.136;15.420;2024-03-23T02:37:24;96355.42;;;7.71;61.19
82870;BME280;72645;47.136;15.420;2024-03-23T02:39:54;96354.02;;;7.79;60.88
82870;BME280;72645;47.136;15.420;2024-03-23T02:42:23;96354.70;;;7.81;61.23
82870;BME280;72645;47.136;15.420;2024-03-23T02:44:53;96359.67;;;7.78;61.09
82870;BME280;72645;47.136;15.420;2024-03-23T02:47:22;96353.95;;;7.72;61.13
82870;BME280;72645;47.136;15.420;2024-03-23T02:49:53;96350.37;;;7.71;60.96
82870;BME280;72645;47.136;15.420;2024-03-23T02:52:24;96350.06;;;7.70;61.30
82870;BME280;72645;47.136;15.420;2024-03-23T02:54:53;96351.34;;;7.68;61.16
82870;BME280;72645;47.136;15.420;2024-03-23T02:57:23;96339.77;;;7.63;61.15
82870;BME280;72645;47.136;15.420;2024-03-23T02:59:54;96334.83;;;7.54;61.33
82870;BME280;72645;47.136;15.420;2024-03-23T03:02:23;96334.40;;;7.50;61.28
82870;BME280;72645;47.136;15.420;2024-03-23T03:04:53;96333.05;;;7.42;61.18
82870;BME280;72645;47.136;15.420;2024-03-23T03:07:22;96327.48;;;7.38;61.45
82870;BME280;72645;47.136;15.420;2024-03-23T03:09:52;96321.91;;;7.38;61.36
82870;BME280;72645;47.136;15.420;2024-03-23T03:12:21;96315.28;;;7.32;61.54
82870;BME280;72645;47.136;15.420;2024-03-23T03:14:52;96318.29;;;7.19;61.80
82870;BME280;72645;47.136;15.420;2024-03-23T03:17:22;96319.95;;;7.12;61.82
82870;BME280;72645;47.136;15.420;2024-03-23T03:19:53;96310.80;;;7.05;62.09
82870;BME280;72645;47.136;15.420;2024-03-23T03:22:24;96314.16;;;6.99;62.32
82870;BME280;72645;47.136;15.420;2024-03-23T03:24:55;96314.59;;;6.98;62.31
82870;BME280;72645;47.136;15.420;2024-03-23T03:27:24;96313.45;;;6.97;62.17
82870;BME280;72645;47.136;15.420;2024-03-23T03:29:54;96317.47;;;6.97;62.05
82870;BME280;72645;47.136;15.420;2024-03-23T03:32:25;96321.02;;;7.00;61.90
82870;BME280;72645;47.136;15.420;2024-03-23T03:34:55;96320.77;;;7.05;61.91
82870;BME280;72645;47.136;15.420;2024-03-23T03:37:24;96321.76;;;7.08;61.99
82870;BME280;72645;47.136;15.420;2024-03-23T03:39:54;96321.40;;;7.09;61.93
82870;BME280;72645;47.136;15.420;2024-03-23T03:42:26;96317.41;;;7.14;62.10
82870;BME280;72645;47.136;15.420;2024-03-23T03:44:57;96314.15;;;7.09;62.16
82870;BME280;72645;47.136;15.420;2024-03-23T03:47:27;96309.55;;;6.97;62.33
82870;BME280;72645;47.136;15.420;2024-03-23T03:49:58;96304.84;;;6.84;62.45
82870;BME280;72645;47.136;15.420;2024-03-23T03:52:28;96294.34;;;6.77;62.37
82870;BME280;72645;47.136;15.420;2024-03-23T03:55:00;96294.16;;;6.70;62.72
82870;BME280;72645;47.136;15.420;2024-03-23T03:57:31;96296.90;;;6.69;62.71
82870;BME280;72645;47.136;15.420;2024-03-23T04:00:00;96298.14;;;6.69;63.24
82870;BME280;72645;47.136;15.420;2024-03-23T04:02:30;96293.20;;;6.68;63.12
82870;BME280;72645;47.136;15.420;2024-03-23T04:04:59;96287.67;;;6.69;63.41
82870;BME280;72645;47.136;15.420;2024-03-23T04:07:30;96287.66;;;6.71;63.36
82870;BME280;72645;47.136;15.420;2024-03-23T04:10:00;96286.66;;;6.71;63.63
82870;BME280;72645;47.136;15.420;2024-03-23T04:12:31;96288.59;;;6.65;63.80
82870;BME280;72645;47.136;15.420;2024-03-23T04:15:02;96283.88;;;6.58;64.05
82870;BME280;72645;47.136;15.420;2024-03-23T04:17:34;96279.95;;;6.54;63.90
82870;BME280;72645;47.136;15.420;2024-03-23T04:20:06;96278.66;;;6.57;63.79
82870;BME280;72645;47.136;15.420;2024-03-23T04:22:40;96282.07;;;6.67;63.79
82870;BME280;72645;47.136;15.420;2024-03-23T04:25:10;96279.58;;;6.74;63.92
82870;BME280;72645;47.136;15.420;2024-03-23T04:27:41;96273.11;;;6.77;64.06
82870;BME280;72645;47.136;15.420;2024-03-23T04:30:11;96273.50;;;6.82;63.64
82870;BME280;72645;47.136;15.420;2024-03-23T04:32:41;96273.52;;;6.90;64.24
82870;BME280;72645;47.136;15.420;2024-03-23T04:35:10;96272.45;;;6.90;63.97
82870;BME280;72645;47.136;15.420;2024-03-23T04:37:41;96274.00;;;6.91;64.37
82870;BME280;72645;47.136;15.420;2024-03-23T04:40:12;96273.02;;;6.94;63.98
82870;BME280;72645;47.136;15.420;2024-03-23T04:42:42;96268.34;;;6.97;64.25
82870;BME280;72645;47.136;15.420;2024-03-23T04:45:11;96261.93;;;6.97;64.31
82870;BME280;72645;47.136;15.420;2024-03-23T04:47:42;96252.80;;;6.96;64.36
82870;BME280;72645;47.136;15.420;2024-03-23T04:50:12;96246.88;;;6.96;64.35
82870;BME280;72645;47.136;15.420;2024-03-23T04:52:43;96240.76;;;6.98;64.84
82870;BME280;72645;47.136;15.420;2024-03-23T04:55:12;96238.84;;;7.00;64.51
82870;BME280;72645;47.136;15.420;2024-03-23T04:57:43;96240.62;;;7.04;64.45
82870;BME280;72645;47.136;15.420;2024-03-23T05:00:15;96236.56;;;7.08;64.55
82870;BME280;72645;47.136;15.420;2024-03-23T05:02:47;96232.33;;;7.13;64.59
82870;BME280;72645;47.136;15.420;2024-03-23T05:05:17;96231.34;;;7.16;64.14
82870;BME280;72645;47.136;15.420;2024-03-23T05:07:48;96227.86;;;7.22;63.95
82870;BME280;72645;47.136;15.420;2024-03-23T05:10:17;96228.40;;;7.30;63.97
82870;BME280;72645;47.136;15.420;2024-03-23T05:12:48;96223.31;;;7.38;63.67
82870;BME280;72645;47.136;15.420;2024-03-23T05:15:17;96220.89;;;7.48;63.43
82870;BME280;72645;47.136;15.420;2024-03-23T05:17:47;96218.50;;;7.55;63.55
82870;BME280;72645;47.136;15.420;2024-03-23T05:20:18;96219.23;;;7.64;63.35
82870;BME280;72645;47.136;15.420;2024-03-23T05:22:49;96218.93;;;7.74;63.18
82870;BME280;72645;47.136;15.420;2024-03-23T05:25:19;96221.70;;;7.81;63.13
82870;BME280;72645;47.136;15.420;2024-03-23T05:27:50;96216.73;;;7.90;63.12
82870;BME280;72645;47.136;15.420;2024-03-23T05:30:20;96219.81;;;7.94;63.34
82870;BME280;72645;47.136;15.420;2024-03-23T05:32:51;96216.73;;;7.94;63.37
82870;BME280;72645;47.136;15.420;2024-03-23T05:35:20;96214.12;;;7.90;63.25
82870;BME280;72645;47.136;15.420;2024-03-23T05:37:49;96213.56;;;7.86;63.64
82870;BME280;72645;47.136;15.420;2024-03-23T05:40:20;96209.33;;;7.83;63.70
82870;BME280;72645;47.136;15.420;2024-03-23T05:42:50;96209.58;;;7.82;63.59
82870;BME280;72645;47.136;15.420;2024-03-23T05:45:22;96202.81;;;7.86;64.09
82870;BME280;72645;47.136;15.420;2024-03-23T05:47:53;96201.23;;;7.90;63.70
82870;BME280;72645;47.136;15.420;2024-03-23T05:50:26;96201.83;;;7.95;63.98
82870;BME280;72645;47.136;15.420;2024-03-23T05:52:56;96198.71;;;7.98;64.14
82870;BME280;72645;47.136;15.420;2024-03-23T05:55:25;96199.06;;;8.00;64.47
82870;BME280;72645;47.136;15.420;2024-03-23T05:57:57;96195.06;;;8.00;64.28
82870;BME280;72645;47.136;15.420;2024-03-23T06:00:29;96191.66;;;7.99;64.30
82870;BME280;72645;47.136;15.420;2024-03-23T06:02:58;96197.08;;;8.03;64.49
82870;BME280;72645;47.136;15.420;2024-03-23T06:05:28;96197.61;;;8.12;64.01
82870;BME280;72645;47.136;15.420;2024-03-23T06:07:57;96199.93;;;8.27;64.05
82870;BME280;72645;47.136;15.420;2024-03-23T06:10:30;96200.04;;;8.42;64.49
82870;BME280;72645;47.136;15.420;2024-03-23T06:13:00;96195.48;;;8.55;64.31
82870;BME280;72645;47.136;15.420;2024-03-23T06:15:31;96189.63;;;8.67;63.90
82870;BME280;72645;47.136;15.420;2024-03-23T06:18:01;96188.05;;;8.77;63.52
82870;BME280;72645;47.136;15.420;2024-03-23T06:20:33;96187.97;;;8.85;63.04
82870;BME280;72645;47.136;15.420;2024-03-23T06:23:03;96183.58;;;8.95;62.93
82870;BME280;72645;47.136;15.420;2024-03-23T06:25:34;96181.44;;;9.06;62.82
82870;BME280;72645;47.136;15.420;2024-03-23T06:28:05;96179.46;;;9.17;62.60
82870;BME280;72645;47.136;15.420;2024-03-23T06:30:36;96177.06;;;9.28;62.24
82870;BME280;72645;47.136;15.420;2024-03-23T06:33:06;96180.27;;;9.37;62.22
82870;BME280;72645;47.136;15.420;2024-03-23T06:35:37;96175.23;;;9.46;62.29
82870;BME280;72645;47.136;15.420;2024-03-23T06:38:07;96176.84;;;9.53;62.30
82870;BME280;72645;47.136;15.420;2024-03-23T06:40:37;96175.92;;;9.60;62.05
82870;BME280;72645;47.136;15.420;2024-03-23T06:43:07;96174.77;;;9.65;62.32
82870;BME280;72645;47.136;15.420;2024-03-23T06:45:38;96175.08;;;9.65;62.51
82870;BME280;72645;47.136;15.420;2024-03-23T06:48:09;96174.93;;;9.67;62.17
82870;BME280;72645;47.136;15.420;2024-03-23T06:50:39;96176.02;;;9.71;61.87
82870;BME280;72645;47.136;15.420;2024-03-23T06:53:10;96176.69;;;9.77;62.04
82870;BME280;72645;47.136;15.420;2024-03-23T06:55:39;96173.38;;;9.84;61.78
82870;BME280;72645;47.136;15.420;2024-03-23T06:58:09;96168.98;;;9.95;66.69
82870;BME280;72645;47.136;15.420;2024-03-23T07:00:40;96168.50;;;10.24;68.55
82870;BME280;72645;47.136;15.420;2024-03-23T07:03:10;96170.58;;;10.49;68.86
82870;BME280;72645;47.136;15.420;2024-03-23T07:05:41;96164.42;;;10.76;66.62
82870;BME280;72645;47.136;15.420;2024-03-23T07:08:12;96165.59;;;10.96;63.52
82870;BME280;72645;47.136;15.420;2024-03-23T07:10:47;96162.09;;;11.08;61.42
82870;BME280;72645;47.136;15.420;2024-03-23T07:13:18;96161.08;;;11.16;60.54
82870;BME280;72645;47.136;15.420;2024-03-23T07:15:54;96163.98;;;11.21;59.19
82870;BME280;72645;47.136;15.420;2024-03-23T07:18:26;96161.30;;;11.25;58.04
82870;BME280;72645;47.136;15.420;2024-03-23T07:20:57;96159.44;;;11.28;57.69
82870;BME280;72645;47.136;15.420;2024-03-23T07:23:28;96159.38;;;11.30;57.32
82870;BME280;72645;47.136;15.420;2024-03-23T07:25:59;96155.33;;;11.34;56.83
82870;BME280;72645;47.136;15.420;2024-03-23T07:28:30;96153.27;;;11.37;56.62
82870;BME280;72645;47.136;15.420;2024-03-23T07:31:06;96151.29;;;11.40;56.62
82870;BME280;72645;47.136;15.420;2024-03-23T07:33:41;96151.73;;;11.44;56.70
82870;BME280;72645;47.136;15.420;2024-03-23T07:36:13;96152.73;;;11.48;56.73
82870;BME280;72645;47.136;15.420;2024-03-23T07:38:44;96150.42;;;11.51;57.03
82870;BME280;72645;47.136;15.420;2024-03-23T07:41:23;96144.81;;;11.53;56.75
82870;BME280;72645;47.136;15.420;2024-03-23T07:43:54;96143.46;;;11.54;56.81
82870;BME280;72645;47.136;15.420;2024-03-23T07:46:25;96140.09;;;11.58;56.81
82870;BME280;72645;47.136;15.420;2024-03-23T07:48:56;96138.11;;;11.64;56.97
82870;BME280;72645;47.136;15.420;2024-03-23T07:51:26;96134.80;;;11.70;56.60
82870;BME280;72645;47.136;15.420;2024-03-23T07:53:57;96134.55;;;11.76;56.81
82870;BME280;72645;47.136;15.420;2024-03-23T07:56:27;96139.33;;;11.82;56.77
82870;BME280;72645;47.136;15.420;2024-03-23T07:58:58;96138.96;;;11.89;56.55
82870;BME280;72645;47.136;15.420;2024-03-23T08:01:28;96134.54;;;11.95;56.48
82870;BME280;72645;47.136;15.420;2024-03-23T08:03:59;96130.32;;;12.02;56.47
82870;BME280;72645;47.136;15.420;2024-03-23T08:06:29;96127.70;;;12.10;56.40
82870;BME280;72645;47.136;15.420;2024-03-23T08:09:05;96130.04;;;12.19;55.58
82870;BME280;72645;47.136;15.420;2024-03-23T08:11:35;96128.81;;;12.25;55.11
82870;BME280;72645;47.136;15.420;2024-03-23T08:14:08;96122.95;;;12.34;55.08
82870;BME280;72645;47.136;15.420;2024-03-23T08:16:39;96121.69;;;12.42;54.90
82870;BME280;72645;47.136;15.420;2024-03-23T08:19:10;96124.93;;;12.49;54.05
82870;BME280;72645;47.136;15.420;2024-03-23T08:21:41;96119.05;;;12.59;53.70
82870;BME280;72645;47.136;15.420;2024-03-23T08:24:11;96114.71;;;12.65;53.64
82870;BME280;72645;47.136;15.420;2024-03-23T08:26:42;96113.55;;;12.70;53.48
82870;BME280;72645;47.136;15.420;2024-03-23T08:29:12;96110.54;;;12.75;53.28
82870;BME280;72645;47.136;15.420;2024-03-23T08:31:42;96104.75;;;12.80;52.68
82870;BME280;72645;47.136;15.420;2024-03-23T08:34:13;96100.55;;;12.84;52.56
82870;BME280;72645;47.136;15.420;2024-03-23T08:36:43;96100.83;;;12.88;52.72
82870;BME280;72645;47.136;15.420;2024-03-23T08:39:14;96098.77;;;12.94;52.86
82870;BME280;72645;47.136;15.420;2024-03-23T08:41:50;96095.91;;;12.99;52.55
82870;BME280;72645;47.136;15.420;2024-03-23T08:44:21;96094.17;;;13.09;52.52
82870;BME280;72645;47.136;15.420;2024-03-23T08:46:51;96087.31;;;13.24;52.58
82870;BME280;72645;47.136;15.420;2024-03-23T08:49:22;96080.42;;;13.39;52.42
82870;BME280;72645;47.136;15.420;2024-03-23T08:51:57;96073.73;;;13.56;51.37
82870;BME280;72645;47.136;15.420;2024-03-23T08:54:27;96073.02;;;13.75;51.10
82870;BME280;72645;47.136;15.420;2024-03-23T08:57:00;96071.98;;;13.99;50.83
82870;BME280;72645;47.136;15.420;2024-03-23T08:59:31;96065.29;;;14.24;50.47
82870;BME280;72645;47.136;15.420;2024-03-23T09:02:01;96065.37;;;14.54;50.31
82870;BME280;72645;47.136;15.420;2024-03-23T09:04:32;96057.92;;;14.84;50.30
82870;BME280;72645;47.136;15.420;2024-03-23T09:07:02;96050.48;;;15.17;49.60
82870;BME280;72645;47.136;15.420;2024-03-23T09:09:33;96049.31;;;15.48;47.96
82870;BME280;72645;47.136;15.420;2024-03-23T09:12:05;96039.73;;;15.77;46.45
82870;BME280;72645;47.136;15.420;2024-03-23T09:14:35;96030.97;;;16.07;45.70
82870;BME280;72645;47.136;15.420;2024-03-23T09:17:07;96030.39;;;16.39;45.30
82870;BME280;72645;47.136;15.420;2024-03-23T09:19:38;96022.45;;;16.72;45.06
82870;BME280;72645;47.136;15.420;2024-03-23T09:22:08;96019.45;;;17.04;44.23
82870;BME280;72645;47.136;15.420;2024-03-23T09:24:39;96009.83;;;17.34;44.03
82870;BME280;72645;47.136;15.420;2024-03-23T09:27:10;96005.45;;;17.64;43.02
82870;BME280;72645;47.136;15.420;2024-03-23T09:29:40;95995.50;;;18.01;42.69
82870;BME280;72645;47.136;15.420;2024-03-23T09:32:11;95985.00;;;18.38;41.88
82870;BME280;72645;47.136;15.420;2024-03-23T09:34:41;95980.98;;;18.62;41.43
82870;BME280;72645;47.136;15.420;2024-03-23T09:37:12;95977.91;;;18.75;40.49
82870;BME280;72645;47.136;15.420;2024-03-23T09:39:42;95975.89;;;18.87;39.95
82870;BME280;72645;47.136;15.420;2024-03-23T09:42:14;95972.40;;;18.94;39.50
82870;BME280;72645;47.136;15.420;2024-03-23T09:44:45;95967.01;;;19.00;39.03
82870;BME280;72645;47.136;15.420;2024-03-23T09:47:16;95968.60;;;19.15;38.27
82870;BME280;72645;47.136;15.420;2024-03-23T09:49:49;95964.23;;;19.32;37.95
82870;BME280;72645;47.136;15.420;2024-03-23T09:52:20;95960.45;;;19.53;37.89
82870;BME280;72645;47.136;15.420;2024-03-23T09:54:50;95962.84;;;19.74;37.46
82870;BME280;72645;47.136;15.420;2024-03-23T09:57:21;95958.59;;;19.82;36.74
82870;BME280;72645;47.136;15.420;2024-03-23T09:59:51;95959.17;;;19.82;36.25
82870;BME280;72645;47.136;15.420;2024-03-23T10:02:24;95951.63;;;19.62;36.24
82870;BME280;72645;47.136;15.420;2024-03-23T10:04:54;95943.95;;;19.35;36.39
82870;BME280;72645;47.136;15.420;2024-03-23T10:07:27;95943.08;;;19.05;36.83
82870;BME280;72645;47.136;15.420;2024-03-23T10:09:58;95942.02;;;18.79;37.62
82870;BME280;72645;47.136;15.420;2024-03-23T10:12:45;95937.96;;;18.69;38.14
82870;BME280;72645;47.136;15.420;2024-03-23T10:15:23;95939.55;;;18.71;37.95
82870;BME280;72645;47.136;15.420;2024-03-23T10:17:54;95946.38;;;18.80;37.78
82870;BME280;72645;47.136;15.420;2024-03-23T10:20:24;95939.65;;;19.01;37.81
82870;BME280;72645;47.136;15.420;2024-03-23T10:22:56;95935.02;;;19.31;37.17
82870;BME280;72645;47.136;15.420;2024-03-23T10:25:26;95929.64;;;19.62;37.04
82870;BME280;72645;47.136;15.420;2024-03-23T10:28:01;95932.66;;;19.95;36.06
82870;BME280;72645;47.136;15.420;2024-03-23T10:30:32;95922.46;;;20.16;35.05
82870;BME280;72645;47.136;15.420;2024-03-23T10:33:10;95922.37;;;20.39;35.25
82870;BME280;72645;47.136;15.420;2024-03-23T10:35:41;95919.00;;;20.57;34.78
82870;BME280;72645;47.136;15.420;2024-03-23T10:38:12;95916.65;;;20.57;34.29
82870;BME280;72645;47.136;15.420;2024-03-23T10:40:43;95917.07;;;20.67;34.78
82870;BME280;72645;47.136;15.420;2024-03-23T10:43:14;95914.86;;;20.80;34.12
82870;BME280;72645;47.136;15.420;2024-03-23T10:45:45;95910.40;;;20.88;34.12
82870;BME280;72645;47.136;15.420;2024-03-23T10:48:16;95910.05;;;20.98;33.21
82870;BME280;72645;47.136;15.420;2024-03-23T10:50:47;95907.17;;;21.04;32.97
82870;BME280;72645;47.136;15.420;2024-03-23T10:53:18;95902.91;;;21.12;32.65
82870;BME280;72645;47.136;15.420;2024-03-23T10:55:49;95901.63;;;21.19;32.38
82870;BME280;72645;47.136;15.420;2024-03-23T10:58:23;95897.80;;;21.31;32.52
82870;BME280;72645;47.136;15.420;2024-03-23T11:00:55;95889.27;;;21.46;32.13
82870;BME280;72645;47.136;15.420;2024-03-23T11:03:38;95881.95;;;21.59;32.34
82870;BME280;72645;47.136;15.420;2024-03-23T11:06:09;95877.16;;;21.81;32.22
82870;BME280;72645;47.136;15.420;2024-03-23T11:08:40;95872.54;;;22.03;32.43
82870;BME280;72645;47.136;15.420;2024-03-23T11:11:17;95859.60;;;22.27;32.43
82870;BME280;72645;47.136;15.420;2024-03-23T11:13:49;95859.59;;;22.47;31.46
82870;BME280;72645;47.136;15.420;2024-03-23T11:16:24;95853.15;;;22.57;30.93
82870;BME280;72645;47.136;15.420;2024-03-23T11:19:35;95844.48;;;22.62;30.15
82870;BME280;72645;47.136;15.420;2024-03-23T11:22:06;95832.82;;;22.69;30.30
82870;BME280;72645;47.136;15.420;2024-03-23T11:24:37;95826.16;;;22.76;30.36
82870;BME280;72645;47.136;15.420;2024-03-23T11:27:18;95824.38;;;22.78;30.86
82870;BME280;72645;47.136;15.420;2024-03-23T11:29:49;95816.46;;;22.93;31.38
82870;BME280;72645;47.136;15.420;2024-03-23T11:32:19;95811.91;;;23.10;31.79
82870;BME280;72645;47.136;15.420;2024-03-23T11:34:51;95807.13;;;23.25;30.04
82870;BME280;72645;47.136;15.420;2024-03-23T11:37:21;95802.34;;;23.35;29.88
82870;BME280;72645;47.136;15.420;2024-03-23T11:39:52;95795.10;;;23.48;29.35
82870;BME280;72645;47.136;15.420;2024-03-23T11:42:22;95784.73;;;23.56;28.73
82870;BME280;72645;47.136;15.420;2024-03-23T11:44:53;95777.92;;;23.57;28.55
82870;BME280;72645;47.136;15.420;2024-03-23T11:47:23;95771.83;;;23.62;28.79
82870;BME280;72645;47.136;15.420;2024-03-23T11:49:53;95768.28;;;23.71;28.93
82870;BME280;72645;47.136;15.420;2024-03-23T11:52:24;95763.77;;;23.84;28.86
82870;BME280;72645;47.136;15.420;2024-03-23T11:55:05;95759.45;;;23.91;27.98
82870;BME280;72645;47.136;15.420;2024-03-23T11:57:37;95754.59;;;24.00;27.75
82870;BME280;72645;47.136;15.420;2024-03-23T12:00:21;95740.38;;;24.00;27.02
82870;BME280;72645;47.136;15.420;2024-03-23T12:02:52;95735.41;;;24.02;27.08
82870;BME280;72645;47.136;15.420;2024-03-23T12:05:23;95734.91;;;24.05;26.91
82870;BME280;72645;47.136;15.420;2024-03-23T12:07:53;95727.92;;;24.03;26.96
82870;BME280;72645;47.136;15.420;2024-03-23T12:10:25;95717.36;;;23.99;27.26
82870;BME280;72645;47.136;15.420;2024-03-23T12:13:02;95712.16;;;23.93;27.14
82870;BME280;72645;47.136;15.420;2024-03-23T12:15:33;95703.52;;;23.96;27.35
82870;BME280;72645;47.136;15.420;2024-03-23T12:18:10;95697.80;;;24.05;27.25
82870;BME280;72645;47.136;15.420;2024-03-23T12:20:41;95692.59;;;24.13;28.03
82870;BME280;72645;47.136;15.420;2024-03-23T12:23:15;95684.48;;;24.27;27.17
82870;BME280;72645;47.136;15.420;2024-03-23T12:25:46;95678.39;;;24.34;26.56
82870;BME280;72645;47.136;15.420;2024-03-23T12:28:19;95676.87;;;24.39;26.80
82870;BME280;72645;47.136;15.420;2024-03-23T12:30:49;95675.67;;;24.36;26.22
82870;BME280;72645;47.136;15.420;2024-03-23T12:33:20;95674.33;;;24.25;26.31
82870;BME280;72645;47.136;15.420;2024-03-23T12:35:51;95672.08;;;24.21;26.10
82870;BME280;72645;47.136;15.420;2024-03-23T12:38:22;95669.65;;;24.11;26.26
82870;BME280;72645;47.136;15.420;2024-03-23T12:40:52;95663.67;;;24.05;26.38
82870;BME280;72645;47.136;15.420;2024-03-23T12:43:23;95664.69;;;23.99;26.66
82870;BME280;72645;47.136;15.420;2024-03-23T12:45:53;95657.50;;;23.83;27.62
82870;BME280;72645;47.136;15.420;2024-03-23T12:48:24;95661.40;;;23.69;27.95
82870;BME280;72645;47.136;15.420;2024-03-23T12:50:57;95658.42;;;23.59;28.38
82870;BME280;72645;47.136;15.420;2024-03-23T12:53:27;95655.41;;;23.55;28.50
82870;BME280;72645;47.136;15.420;2024-03-23T12:55:58;95655.34;;;23.49;28.73
82870;BME280;72645;47.136;15.420;2024-03-23T12:58:29;95661.20;;;23.46;28.88
82870;BME280;72645;47.136;15.420;2024-03-23T13:01:00;95651.81;;;23.45;28.82
82870;BME280;72645;47.136;15.420;2024-03-23T13:03:31;95655.21;;;23.47;28.52
82870;BME280;72645;47.136;15.420;2024-03-23T13:06:02;95651.05;;;23.44;28.42
82870;BME280;72645;47.136;15.420;2024-03-23T13:08:36;95643.39;;;23.50;28.50
82870;BME280;72645;47.136;15.420;2024-03-23T13:11:07;95634.22;;;23.48;28.13
82870;BME280;72645;47.136;15.420;2024-03-23T13:13:37;95636.10;;;23.53;28.85
82870;BME280;72645;47.136;15.420;2024-03-23T13:16:08;95630.40;;;23.56;28.29
82870;BME280;72645;47.136;15.420;2024-03-23T13:18:38;95631.38;;;23.56;28.88
82870;BME280;72645;47.136;15.420;2024-03-23T13:21:09;95626.27;;;23.56;29.26
82870;BME280;72645;47.136;15.420;2024-03-23T13:23:40;95626.48;;;23.56;29.05
82870;BME280;72645;47.136;15.420;2024-03-23T13:26:11;95621.44;;;23.55;27.83
82870;BME280;72645;47.136;15.420;2024-03-23T13:28:46;95623.15;;;23.54;27.82
82870;BME280;72645;47.136;15.420;2024-03-23T13:31:16;95617.14;;;23.54;27.66
82870;BME280;72645;47.136;15.420;2024-03-23T13:33:47;95609.56;;;23.52;28.01
82870;BME280;72645;47.136;15.420;2024-03-23T13:36:17;95603.98;;;23.55;28.15
82870;BME280;72645;47.136;15.420;2024-03-23T13:38:48;95602.61;;;23.57;29.45
82870;BME280;72645;47.136;15.420;2024-03-23T13:41:18;95599.71;;;23.62;29.26
82870;BME280;72645;47.136;15.420;2024-03-23T13:43:49;95593.35;;;23.68;28.69
82870;BME280;72645;47.136;15.420;2024-03-23T13:46:19;95587.92;;;23.76;28.58
82870;BME280;72645;47.136;15.420;2024-03-23T13:48:50;95583.95;;;23.81;28.68
82870;BME280;72645;47.136;15.420;2024-03-23T13:51:24;95584.04;;;23.97;28.72
82870;BME280;72645;47.136;15.420;2024-03-23T13:53:56;95586.08;;;24.10;28.88
82870;BME280;72645;47.136;15.420;2024-03-23T13:56:29;95579.42;;;24.16;28.33
82870;BME280;72645;47.136;15.420;2024-03-23T13:59:00;95580.20;;;24.18;27.31
82870;BME280;72645;47.136;15.420;2024-03-23T14:01:30;95578.99;;;24.16;28.36
82870;BME280;72645;47.136;15.420;2024-03-23T14:04:01;95576.89;;;24.15;28.53
82870;BME280;72645;47.136;15.420;2024-03-23T14:06:31;95573.71;;;24.20;27.87
82870;BME280;72645;47.136;15.420;2024-03-23T14:09:02;95567.84;;;24.08;28.07